createdAt,value
2018-06-05T00:02:00.948Z,94.00
2018-06-05T00:04:29.275Z,93.90
2018-06-05T00:06:57.621Z,94.00
2018-06-05T00:09:25.943Z,94.00
2018-06-05T00:11:54.288Z,94.00
2018-06-05T00:14:22.617Z,94.20
2018-06-05T00:16:50.206Z,94.10
2018-06-05T00:19:18.525Z,94.10
2018-06-05T00:21:46.868Z,94.10
2018-06-05T00:24:15.172Z,94.20
2018-06-05T00:26:43.511Z,94.10
2018-06-05T00:29:11.839Z,94.00
2018-06-05T00:31:40.194Z,94.00
2018-06-05T00:34:08.518Z,94.00
2018-06-05T00:36:36.866Z,93.90
2018-06-05T00:39:05.196Z,93.80
2018-06-05T00:41:33.542Z,93.70
2018-06-05T00:44:01.877Z,93.90
2018-06-05T00:46:30.229Z,94.50
2018-06-05T00:48:58.549Z,94.10
2018-06-05T00:51:38.728Z,94.00
2018-06-05T00:54:07.057Z,94.00
2018-06-05T00:56:35.404Z,94.10
2018-06-05T00:59:03.722Z,94.00
2018-06-05T01:01:32.065Z,94.10
2018-06-05T01:04:00.389Z,94.20
2018-06-05T01:06:28.729Z,94.10
2018-06-05T01:08:57.059Z,94.00
2018-06-05T01:11:25.397Z,93.90
2018-06-05T01:13:53.716Z,93.80
2018-06-05T01:16:22.064Z,93.90
2018-06-05T01:18:50.384Z,93.90
2018-06-05T01:21:18.759Z,93.90
2018-06-05T01:23:47.080Z,93.80
2018-06-05T01:26:15.427Z,93.60
2018-06-05T01:28:43.746Z,93.50
2018-06-05T01:31:12.093Z,93.50
2018-06-05T01:33:40.416Z,93.40
2018-06-05T01:36:08.761Z,93.30
2018-06-05T01:38:37.073Z,93.10
2018-06-05T01:41:05.427Z,93.00
2018-06-05T01:43:33.749Z,93.10
2018-06-05T01:46:02.103Z,92.90
2018-06-05T01:48:30.431Z,93.00
2018-06-05T01:50:58.766Z,92.90
2018-06-05T01:53:27.113Z,92.90
2018-06-05T01:55:54.669Z,92.90
2018-06-05T01:58:23.029Z,92.70
2018-06-05T02:00:51.369Z,92.80
2018-06-05T02:03:19.722Z,92.80
2018-06-05T02:05:48.039Z,92.80
2018-06-05T02:08:16.381Z,92.90
2018-06-05T02:10:44.705Z,92.80
2018-06-05T02:13:13.054Z,92.90
2018-06-05T02:15:41.384Z,93.00
2018-06-05T02:18:09.727Z,93.10
2018-06-05T02:20:38.043Z,93.60
2018-06-05T02:23:06.396Z,93.90
2018-06-05T02:25:34.712Z,93.70
2018-06-05T02:28:03.076Z,93.90
2018-06-05T02:30:31.398Z,94.00
2018-06-05T02:32:59.751Z,94.00
2018-06-05T02:35:28.068Z,94.00
2018-06-05T02:37:56.406Z,94.00
2018-06-05T02:40:24.724Z,94.10
2018-06-05T02:42:53.063Z,94.20
2018-06-05T02:45:21.381Z,94.30
2018-06-05T02:47:49.726Z,94.30
2018-06-05T02:50:18.046Z,94.50
2018-06-05T02:52:46.377Z,94.70
2018-06-05T02:55:14.698Z,95.00
2018-06-05T02:57:43.040Z,94.80
2018-06-05T03:00:11.373Z,94.70
2018-06-05T03:02:39.760Z,94.60
2018-06-05T03:05:08.067Z,94.50
2018-06-05T03:07:36.411Z,94.60
2018-06-05T03:10:04.727Z,94.60
2018-06-05T03:12:33.095Z,94.70
2018-06-05T03:15:01.431Z,94.80
2018-06-05T03:17:29.772Z,94.90
2018-06-05T03:19:58.095Z,95.00
2018-06-05T03:22:26.456Z,95.20
2018-06-05T03:24:54.773Z,95.30
2018-06-05T03:27:23.118Z,95.30
2018-06-05T03:29:51.444Z,95.30
2018-06-05T03:32:19.813Z,95.30
2018-06-05T03:34:48.137Z,95.40
2018-06-05T03:37:16.462Z,95.50
2018-06-05T03:39:44.804Z,95.30
2018-06-05T03:42:13.130Z,95.40
2018-06-05T03:44:41.478Z,95.60
2018-06-05T03:47:09.798Z,95.50
2018-06-05T03:49:38.143Z,95.50
2018-06-05T03:52:06.470Z,95.50
2018-06-05T03:54:34.816Z,95.70
2018-06-05T03:57:03.155Z,95.80
2018-06-05T03:59:31.517Z,96.00
2018-06-05T04:01:59.856Z,96.10
2018-06-05T04:04:28.203Z,96.10
2018-06-05T04:06:56.535Z,96.10
2018-06-05T04:09:24.876Z,96.30
2018-06-05T04:11:53.203Z,96.30
2018-06-05T04:14:21.544Z,96.20
2018-06-05T04:16:49.867Z,96.30
2018-06-05T04:19:18.217Z,96.50
2018-06-05T04:21:46.551Z,96.60
2018-06-05T04:24:14.895Z,96.80
2018-06-05T04:26:43.220Z,97.00
2018-06-05T04:29:11.566Z,96.90
2018-06-05T04:31:39.886Z,96.80
2018-06-05T04:34:08.233Z,96.70
2018-06-05T04:36:36.610Z,96.60
2018-06-05T04:39:04.953Z,96.70
2018-06-05T04:41:33.282Z,96.80
2018-06-05T04:44:01.622Z,96.90
2018-06-05T04:46:29.940Z,96.70
2018-06-05T04:48:58.280Z,96.50
2018-06-05T04:51:26.597Z,96.40
2018-06-05T04:53:54.965Z,96.40
2018-06-05T04:56:23.304Z,96.70
2018-06-05T04:58:51.641Z,97.00
2018-06-05T05:01:19.964Z,97.10
2018-06-05T05:03:48.302Z,97.40
2018-06-05T05:06:16.621Z,97.30
2018-06-05T05:08:44.964Z,97.40
2018-06-05T05:11:13.292Z,97.70
2018-06-05T05:13:41.653Z,97.70
2018-06-05T05:16:09.973Z,97.60
2018-06-05T05:18:38.288Z,97.40
2018-06-05T05:21:06.633Z,97.20
2018-06-05T05:23:34.961Z,96.70
2018-06-05T05:26:03.304Z,97.00
2018-06-05T05:28:31.633Z,97.30
2018-06-05T05:30:59.976Z,97.10
2018-06-05T05:33:28.308Z,96.90
2018-06-05T05:35:56.703Z,96.80
2018-06-05T05:38:24.989Z,96.70
2018-06-05T05:40:53.334Z,96.90
2018-06-05T05:43:21.657Z,96.70
2018-06-05T05:45:50.001Z,96.60
2018-06-05T05:48:18.318Z,96.40
2018-06-05T05:50:46.653Z,96.50
2018-06-05T05:53:14.989Z,96.50
2018-06-05T05:55:43.325Z,96.80
2018-06-05T05:58:11.649Z,96.20
2018-06-05T06:00:40.012Z,96.00
2018-06-05T06:03:08.332Z,95.60
2018-06-05T06:05:36.685Z,95.50
2018-06-05T06:08:05.019Z,95.40
2018-06-05T06:10:33.374Z,95.20
2018-06-05T06:13:01.699Z,95.00
2018-06-05T06:15:30.044Z,95.00
2018-06-05T06:17:58.372Z,94.90
2018-06-05T06:20:26.712Z,94.70
2018-06-05T06:22:55.042Z,94.50
2018-06-05T06:25:23.389Z,94.00
2018-06-05T06:27:51.711Z,93.70
2018-06-05T06:30:20.063Z,93.90
2018-06-05T06:32:48.392Z,93.90
2018-06-05T06:35:16.749Z,93.60
2018-06-05T06:37:45.079Z,93.20
2018-06-05T06:40:13.429Z,93.10
2018-06-05T06:42:41.751Z,92.60
2018-06-05T06:45:10.102Z,92.30
2018-06-05T06:47:38.434Z,92.40
2018-06-05T06:50:06.787Z,92.90
2018-06-05T06:52:35.132Z,92.80
2018-06-05T06:55:03.478Z,92.50
2018-06-05T06:57:31.802Z,92.10
2018-06-05T07:00:00.129Z,91.70
2018-06-05T07:02:28.495Z,91.40
2018-06-05T07:04:56.828Z,91.50
2018-06-05T07:07:25.186Z,91.00
2018-06-05T07:09:53.501Z,90.50
2018-06-05T07:12:21.942Z,90.10
2018-06-05T07:14:50.219Z,90.20
2018-06-05T07:17:18.567Z,88.90
2018-06-05T07:19:46.908Z,88.20
2018-06-05T07:22:15.269Z,86.40
2018-06-05T07:24:43.593Z,85.50
2018-06-05T07:27:11.925Z,85.30
2018-06-05T07:29:40.252Z,85.30
2018-06-05T07:32:08.597Z,84.10
2018-06-05T07:34:36.920Z,83.60
2018-06-05T07:37:05.283Z,83.50
2018-06-05T07:39:33.626Z,83.20
2018-06-05T07:42:01.974Z,82.80
2018-06-05T07:44:30.296Z,82.50
2018-06-05T07:46:58.645Z,82.00
2018-06-05T07:49:26.963Z,80.40
2018-06-05T07:51:55.306Z,80.70
2018-06-05T07:54:23.669Z,79.90
2018-06-05T07:56:52.016Z,79.00
2018-06-05T07:59:20.340Z,78.50
2018-06-05T08:01:48.681Z,78.30
2018-06-05T08:04:17.003Z,77.60
2018-06-05T08:06:45.360Z,76.60
2018-06-05T08:09:13.684Z,76.60
2018-06-05T08:11:42.038Z,75.50
2018-06-05T08:14:10.358Z,74.80
2018-06-05T08:16:38.713Z,75.00
2018-06-05T08:19:07.029Z,74.50
2018-06-05T08:21:35.393Z,73.90
2018-06-05T08:24:03.711Z,74.70
2018-06-05T08:26:32.051Z,74.80
2018-06-05T08:29:00.369Z,74.70
2018-06-05T08:31:28.706Z,72.60
2018-06-05T08:33:57.028Z,73.10
2018-06-05T08:36:25.371Z,73.80
2018-06-05T08:38:53.691Z,74.30
2018-06-05T08:41:22.045Z,74.80
2018-06-05T08:43:50.366Z,75.10
2018-06-05T08:46:18.690Z,75.00
2018-06-05T08:48:47.030Z,73.30
2018-06-05T08:51:15.360Z,72.60
2018-06-05T08:53:43.711Z,72.20
2018-06-05T08:56:12.032Z,71.10
2018-06-05T08:58:40.370Z,71.10
2018-06-05T09:01:08.698Z,70.50
2018-06-05T09:03:37.046Z,68.20
2018-06-05T09:06:05.369Z,69.00
2018-06-05T09:08:33.705Z,69.90
2018-06-05T09:11:02.022Z,70.50
2018-06-05T09:13:30.365Z,70.30
2018-06-05T09:15:58.694Z,70.60
2018-06-05T09:18:27.052Z,70.10
2018-06-05T09:20:55.386Z,68.90
2018-06-05T09:23:23.751Z,67.40
2018-06-05T09:25:52.072Z,67.30
2018-06-05T09:28:20.414Z,68.20
2018-06-05T09:30:48.745Z,67.50
2018-06-05T09:33:17.088Z,66.50
2018-06-05T09:35:45.400Z,65.20
2018-06-05T09:38:13.741Z,63.50
2018-06-05T09:40:42.057Z,62.50
2018-06-05T09:43:10.419Z,62.20
2018-06-05T09:45:38.734Z,61.20
2018-06-05T09:48:07.093Z,60.60
2018-06-05T09:50:35.425Z,59.50
2018-06-05T09:53:03.767Z,59.10
2018-06-05T09:55:32.087Z,58.60
2018-06-05T09:58:00.524Z,57.80
2018-06-05T10:00:28.782Z,57.10
2018-06-05T10:02:57.126Z,57.10
2018-06-05T10:05:25.629Z,57.00
2018-06-05T10:07:53.984Z,57.20
2018-06-05T10:10:22.305Z,56.60
2018-06-05T10:12:50.656Z,56.40
2018-06-05T10:15:18.984Z,56.20
2018-06-05T10:17:47.336Z,55.60
2018-06-05T10:20:15.673Z,55.20
2018-06-05T10:22:44.017Z,55.30
2018-06-05T10:25:12.341Z,55.60
2018-06-05T10:27:40.714Z,56.00
2018-06-05T10:30:09.045Z,55.60
2018-06-05T10:32:37.372Z,53.60
2018-06-05T10:35:05.733Z,54.70
2018-06-05T10:37:34.074Z,55.60
2018-06-05T10:40:02.426Z,55.30
2018-06-05T10:42:30.751Z,55.90
2018-06-05T10:44:59.100Z,55.40
2018-06-05T10:47:27.419Z,56.00
2018-06-05T10:49:55.767Z,56.20
2018-06-05T10:52:24.084Z,55.80
2018-06-05T10:54:52.424Z,55.40
2018-06-05T10:57:20.752Z,54.50
2018-06-05T10:59:49.100Z,54.60
2018-06-05T11:02:17.437Z,54.60
2018-06-05T11:04:45.781Z,54.40
2018-06-05T11:07:14.117Z,54.50
2018-06-05T11:09:42.474Z,54.90
2018-06-05T11:12:10.797Z,55.00
2018-06-05T11:14:39.145Z,54.90
2018-06-05T11:17:06.692Z,54.90
2018-06-05T11:19:35.030Z,55.00
2018-06-05T11:22:03.351Z,54.50
2018-06-05T11:24:30.943Z,54.50
2018-06-05T11:26:59.264Z,54.60
2018-06-05T11:29:27.642Z,54.70
2018-06-05T11:31:55.961Z,54.20
2018-06-05T11:34:24.314Z,54.10
2018-06-05T11:36:52.666Z,53.80
2018-06-05T11:39:21.275Z,54.00
2018-06-05T11:41:49.626Z,53.10
2018-06-05T11:44:17.975Z,53.80
2018-06-05T11:46:46.335Z,53.80
2018-06-05T11:49:14.689Z,52.70
2018-06-05T11:51:43.014Z,52.60
2018-06-05T11:54:11.425Z,52.60
2018-06-05T11:56:39.711Z,52.60
2018-06-05T11:59:08.099Z,52.50
2018-06-05T12:01:37.125Z,53.00
2018-06-05T12:04:05.536Z,51.90
2018-06-05T12:06:33.894Z,52.10
2018-06-05T12:09:02.225Z,52.20
2018-06-05T12:11:30.567Z,52.10
2018-06-05T12:13:58.915Z,52.00
2018-06-05T12:16:27.297Z,52.00
2018-06-05T12:18:55.732Z,50.90
2018-06-05T12:21:24.088Z,51.10
2018-06-05T12:23:52.420Z,50.90
2018-06-05T12:26:20.841Z,50.90
2018-06-05T12:28:48.397Z,50.90
2018-06-05T12:31:16.754Z,50.90
2018-06-05T12:33:45.396Z,51.60
2018-06-05T12:36:13.762Z,50.40
2018-06-05T12:38:42.097Z,51.60
2018-06-05T12:41:09.688Z,51.60
2018-06-05T12:43:38.096Z,50.50
2018-06-05T12:46:06.456Z,50.40
2018-06-05T12:48:34.792Z,50.10
2018-06-05T12:51:03.147Z,51.00
2018-06-05T12:53:31.478Z,50.80
2018-06-05T12:55:59.842Z,50.10
2018-06-05T12:58:28.224Z,50.40
2018-06-05T13:00:55.817Z,50.30
2018-06-05T13:03:24.157Z,49.60
2018-06-05T13:05:51.758Z,49.60
2018-06-05T13:08:19.310Z,49.80
2018-06-05T13:10:47.669Z,48.90
2018-06-05T13:13:16.001Z,48.90
2018-06-05T13:15:44.381Z,49.00
2018-06-05T13:18:12.757Z,49.40
2018-06-05T13:20:41.107Z,49.30
2018-06-05T13:23:09.448Z,49.10
2018-06-05T13:25:37.805Z,48.70
2018-06-05T13:28:06.149Z,49.00
2018-06-05T13:30:34.524Z,49.00
2018-06-05T13:33:02.846Z,49.40
2018-06-05T13:35:31.205Z,48.90
2018-06-05T13:37:59.556Z,48.60
2018-06-05T13:40:27.171Z,48.60
2018-06-05T13:42:55.493Z,48.30
2018-06-05T13:45:23.839Z,48.50
2018-06-05T13:47:52.240Z,48.60
2018-06-05T13:50:20.564Z,48.40
2018-06-05T13:52:48.929Z,48.70
2018-06-05T13:55:17.245Z,48.80
2018-06-05T13:57:45.601Z,48.90
2018-06-05T14:00:13.917Z,49.00
2018-06-05T14:02:42.258Z,48.90
2018-06-05T14:05:10.598Z,48.80
2018-06-05T14:07:38.944Z,48.70
2018-06-05T14:10:07.264Z,48.00
2018-06-05T14:12:35.625Z,48.10
2018-06-05T14:15:03.936Z,48.20
2018-06-05T14:17:32.308Z,48.50
2018-06-05T14:20:00.636Z,48.90
2018-06-05T14:22:28.981Z,49.00
2018-06-05T14:24:57.346Z,48.30
2018-06-05T14:27:24.928Z,48.20
2018-06-05T14:29:53.252Z,48.50
2018-06-05T14:32:21.601Z,48.60
2018-06-05T14:34:49.922Z,48.10
2018-06-05T14:37:18.268Z,48.00
2018-06-05T14:39:46.588Z,48.10
2018-06-05T14:42:14.943Z,47.90
2018-06-05T14:44:43.272Z,47.70
2018-06-05T14:47:11.625Z,48.20
2018-06-05T14:49:39.952Z,48.20
2018-06-05T14:52:08.421Z,48.60
2018-06-05T14:54:36.752Z,49.20
2018-06-05T14:57:05.118Z,49.10
2018-06-05T14:59:33.444Z,48.90
2018-06-05T15:02:01.804Z,48.90
2018-06-05T15:04:30.135Z,48.80
2018-06-05T15:06:58.481Z,48.80
2018-06-05T15:09:26.813Z,48.70
2018-06-05T15:11:55.159Z,49.10
2018-06-05T15:14:23.507Z,49.30
2018-06-05T15:16:51.852Z,48.80
2018-06-05T15:19:20.188Z,48.70
2018-06-05T15:21:48.529Z,48.90
2018-06-05T15:24:16.081Z,48.30
2018-06-05T15:26:44.434Z,48.60
2018-06-05T15:29:12.766Z,49.00
2018-06-05T15:31:41.087Z,48.30
2018-06-05T15:34:09.507Z,48.60
2018-06-05T15:36:37.833Z,49.40
2018-06-05T15:39:06.200Z,49.20
2018-06-05T15:41:34.553Z,48.70
2018-06-05T15:44:02.919Z,48.80
2018-06-05T15:46:31.250Z,48.50
2018-06-05T15:48:59.594Z,48.90
2018-06-05T15:51:27.921Z,48.40
2018-06-05T15:53:56.313Z,48.10
2018-06-05T15:56:24.644Z,48.10
2018-06-05T15:58:52.998Z,49.50
2018-06-05T16:01:21.320Z,49.60
2018-06-05T16:03:49.683Z,49.40
2018-06-05T16:06:17.249Z,49.40
2018-06-05T16:08:45.606Z,50.20
2018-06-05T16:11:14.061Z,49.80
2018-06-05T16:13:42.448Z,49.30
2018-06-05T16:16:11.693Z,49.90
2018-06-05T16:18:40.041Z,50.00
2018-06-05T16:21:08.394Z,50.30
2018-06-05T16:23:36.740Z,50.00
2018-06-05T16:26:05.093Z,49.60
2018-06-05T16:28:33.438Z,49.70
2018-06-05T16:31:01.757Z,50.60
2018-06-05T16:33:30.114Z,50.40
2018-06-05T16:35:58.450Z,50.50
2018-06-05T16:38:26.054Z,50.50
2018-06-05T16:40:54.372Z,50.00
2018-06-05T16:43:22.725Z,49.80
2018-06-05T16:45:51.041Z,50.30
2018-06-05T16:48:19.384Z,50.90
2018-06-05T16:50:47.724Z,50.70
2018-06-05T16:53:16.078Z,49.60
2018-06-05T16:55:44.414Z,50.80
2018-06-05T16:58:11.996Z,50.70
2018-06-05T17:00:40.325Z,50.60
2018-06-05T17:03:08.671Z,50.20
2018-06-05T17:05:36.984Z,48.50
2018-06-05T17:08:05.325Z,47.50
2018-06-05T17:10:33.651Z,46.50
2018-06-05T17:13:01.980Z,45.80
2018-06-05T17:15:30.328Z,45.00
2018-06-05T17:17:57.897Z,45.50
2018-06-05T17:20:26.242Z,44.40
2018-06-05T17:22:54.580Z,44.60
2018-06-05T17:25:22.926Z,44.00
2018-06-05T17:27:51.257Z,44.30
2018-06-05T17:30:19.640Z,44.90
2018-06-05T17:32:47.974Z,45.40
2018-06-05T17:35:16.416Z,45.60
2018-06-05T17:37:44.742Z,46.20
2018-06-05T17:40:13.115Z,45.90
2018-06-05T17:42:41.440Z,45.70
2018-06-05T17:45:09.800Z,45.20
2018-06-05T17:47:37.360Z,45.30
2018-06-05T17:50:05.714Z,46.80
2018-06-05T17:52:34.066Z,47.20
2018-06-05T17:55:01.688Z,47.10
2018-06-05T17:57:30.013Z,45.20
2018-06-05T17:59:58.366Z,43.90
2018-06-05T18:02:26.705Z,43.10
2018-06-05T18:04:55.040Z,43.20
2018-06-05T18:07:23.367Z,43.00
2018-06-05T18:09:51.718Z,43.10
2018-06-05T18:12:20.086Z,43.40
2018-06-05T18:14:47.643Z,43.30
2018-06-05T18:17:15.981Z,44.50
2018-06-05T18:19:44.349Z,45.40
2018-06-05T18:22:12.667Z,45.80
2018-06-05T18:24:41.010Z,46.40
2018-06-05T18:27:09.334Z,46.80
2018-06-05T18:29:37.677Z,47.60
2018-06-05T18:32:06.009Z,48.10
2018-06-05T18:34:34.363Z,49.10
2018-06-05T18:37:02.724Z,50.50
2018-06-05T18:39:31.102Z,52.00
2018-06-05T18:41:59.417Z,53.40
2018-06-05T18:44:27.787Z,54.40
2018-06-05T18:46:56.121Z,55.30
2018-06-05T18:49:24.478Z,56.10
2018-06-05T18:51:52.976Z,57.00
2018-06-05T18:54:21.305Z,58.00
2018-06-05T18:56:49.747Z,58.80
2018-06-05T18:59:18.095Z,59.50
2018-06-05T19:01:46.447Z,59.90
2018-06-05T19:04:14.773Z,60.70
2018-06-05T19:06:43.123Z,61.70
2018-06-05T19:09:11.483Z,62.80
2018-06-05T19:11:39.826Z,64.00
2018-06-05T19:14:07.476Z,64.00
2018-06-05T19:16:35.861Z,66.10
2018-06-05T19:19:04.177Z,67.10
2018-06-05T19:21:32.521Z,68.00
2018-06-05T19:24:00.843Z,69.10
2018-06-05T19:26:29.197Z,70.20
2018-06-05T19:28:57.528Z,71.00
2018-06-05T19:31:25.889Z,71.90
2018-06-05T19:33:54.215Z,73.60
2018-06-05T19:36:22.553Z,73.70
2018-06-05T19:38:50.936Z,74.50
2018-06-05T19:41:19.299Z,75.30
2018-06-05T19:43:47.623Z,76.40
2018-06-05T19:46:16.020Z,77.20
2018-06-05T19:48:44.416Z,78.00
2018-06-05T19:51:12.708Z,78.70
2018-06-05T19:53:41.071Z,79.50
2018-06-05T19:56:09.413Z,80.30
2018-06-05T19:58:37.733Z,81.00
2018-06-05T20:01:06.074Z,81.70
2018-06-05T20:03:34.445Z,82.10
2018-06-05T20:06:02.790Z,82.60
2018-06-05T20:08:31.174Z,82.80
2018-06-05T20:10:59.530Z,83.20
2018-06-05T20:13:27.868Z,83.60
2018-06-05T20:15:56.231Z,84.00
2018-06-05T20:18:24.589Z,84.30
2018-06-05T20:20:52.925Z,84.90
2018-06-05T20:23:21.244Z,85.50
2018-06-05T20:25:49.605Z,85.70
2018-06-05T20:28:17.921Z,86.10
2018-06-05T20:30:46.261Z,86.10
2018-06-05T20:33:14.585Z,86.40
2018-06-05T20:35:42.172Z,86.40
2018-06-05T20:38:10.482Z,86.50
2018-06-05T20:40:38.797Z,86.50
2018-06-05T20:43:07.134Z,86.60
2018-06-05T20:45:35.463Z,86.60
2018-06-05T20:48:03.034Z,86.60
2018-06-05T20:50:31.377Z,86.80
2018-06-05T20:52:59.780Z,87.00
2018-06-05T20:55:28.124Z,87.90
2018-06-05T20:57:56.461Z,87.90
2018-06-05T21:00:24.787Z,88.30
2018-06-05T21:02:53.199Z,88.60
2018-06-05T21:05:21.478Z,89.00
2018-06-05T21:07:49.814Z,89.20
2018-06-05T21:10:18.149Z,89.40
2018-06-05T21:12:46.480Z,89.80
2018-06-05T21:15:14.801Z,90.10
2018-06-05T21:17:43.140Z,90.40
2018-06-05T21:20:11.465Z,90.40
2018-06-05T21:22:39.803Z,90.60
2018-06-05T21:25:08.133Z,90.80
2018-06-05T21:27:36.486Z,90.80
2018-06-05T21:30:04.804Z,90.80
2018-06-05T21:32:33.141Z,90.80
2018-06-05T21:35:01.461Z,90.80
2018-06-05T21:37:29.803Z,90.80
2018-06-05T21:39:58.125Z,90.80
2018-06-05T21:42:26.465Z,90.80
2018-06-05T21:44:54.016Z,90.70
2018-06-05T21:47:22.363Z,90.80
2018-06-05T21:49:50.685Z,90.70
2018-06-05T21:52:19.031Z,90.70
2018-06-05T21:54:47.388Z,90.70
2018-06-05T21:57:15.717Z,90.80
2018-06-05T21:59:44.032Z,90.80
2018-06-05T22:02:12.373Z,90.90
2018-06-05T22:04:40.698Z,90.90
2018-06-05T22:07:09.038Z,90.80
2018-06-05T22:09:37.374Z,90.90
2018-06-05T22:12:05.718Z,90.80
2018-06-05T22:14:34.042Z,90.80
2018-06-05T22:17:02.393Z,90.90
2018-06-05T22:19:30.715Z,91.10
2018-06-05T22:21:59.028Z,91.20
2018-06-05T22:24:27.406Z,91.50
2018-06-05T22:26:55.006Z,91.40
2018-06-05T22:29:23.380Z,91.50
2018-06-05T22:31:51.726Z,91.60
2018-06-05T22:34:20.096Z,91.60
2018-06-05T22:36:48.417Z,91.70
2018-06-05T22:39:16.750Z,91.70
2018-06-05T22:41:45.073Z,91.70
2018-06-05T22:44:13.412Z,91.70
2018-06-05T22:46:41.718Z,91.80
2018-06-05T22:49:10.056Z,91.90
2018-06-05T22:51:38.372Z,92.00
2018-06-05T22:54:06.708Z,91.90
2018-06-05T22:56:35.033Z,91.90
2018-06-05T22:59:03.376Z,91.70
2018-06-05T23:01:31.700Z,91.80
2018-06-05T23:04:00.049Z,92.00
2018-06-05T23:06:28.370Z,92.00
2018-06-05T23:08:56.710Z,91.80
2018-06-05T23:11:25.070Z,91.80
2018-06-05T23:13:53.439Z,91.70
2018-06-05T23:16:21.781Z,91.60
2018-06-05T23:18:50.153Z,91.70
2018-06-05T23:21:18.477Z,91.90
2018-06-05T23:23:46.851Z,92.00
2018-06-05T23:26:15.177Z,92.10
2018-06-05T23:28:43.519Z,92.20
2018-06-05T23:31:11.844Z,92.30
2018-06-05T23:33:40.187Z,92.20
2018-06-05T23:36:07.748Z,92.20
2018-06-05T23:38:35.318Z,92.10
2018-06-05T23:41:03.659Z,92.10
2018-06-05T23:43:31.998Z,92.00
2018-06-05T23:46:00.315Z,92.00
2018-06-05T23:48:28.665Z,92.00
2018-06-05T23:50:56.996Z,92.00
2018-06-05T23:53:25.348Z,92.00
2018-06-05T23:55:53.667Z,92.10
2018-06-05T23:58:21.994Z,92.10
